Time;durP1;ratioP1;P1;durP2;ratioP2;P2;SDS_P1;SDS_P2;PMS_P1;PMS_P2;Temp;Humidity;BMP_temperature;BMP_pressure;BME280_temperature;BME280_humidity;BME280_pressure;Samples;Min_cycle;Max_cycle;Signal;HPM_P1;HPM_P2
2022/03/13 00:02:04;;;;;;;13.05;8.80;;;7.30;69.30;;;;;;5111102;28;20055;-81
2022/03/13 00:04:29;;;;;;;14.27;9.43;;;7.30;69.30;;;;;;5111180;28;20113;-81
2022/03/13 00:06:56;;;;;;;15.52;9.80;;;7.30;69.20;;;;;;5111289;28;20044;-81
2022/03/13 00:09:22;;;;;;;15.50;10.27;;;7.30;70.00;;;;;;5093797;28;20051;-81
2022/03/13 00:11:54;;;;;;;13.00;9.85;;;7.20;69.00;;;;;;5127630;28;20035;-81
2022/03/13 00:14:24;;;;;;;13.05;9.57;;;7.20;69.30;;;;;;5111043;28;20043;-81
2022/03/13 00:16:50;;;;;;;27.67;9.48;;;7.20;69.30;;;;;;5128166;28;20054;-81
2022/03/13 00:19:17;;;;;;;14.95;10.18;;;7.10;69.20;;;;;;5110820;28;20078;-81
2022/03/13 00:21:50;;;;;;;16.30;8.85;;;7.10;69.40;;;;;;5110786;28;20039;-81
2022/03/13 00:24:20;;;;;;;15.55;9.45;;;7.10;69.30;;;;;;5112856;27;20081;-81
2022/03/13 00:26:52;;;;;;;15.38;9.38;;;7.00;69.50;;;;;;5114863;27;20051;-81
2022/03/13 00:29:18;;;;;;;13.07;9.05;;;7.00;69.70;;;;;;5097439;27;20176;-81
2022/03/13 00:31:44;;;;;;;15.07;10.10;;;7.00;69.70;;;;;;5114356;27;20086;-81
2022/03/13 00:34:10;;;;;;;13.60;9.68;;;6.90;69.90;;;;;;5132186;27;20569;-81
2022/03/13 00:36:35;;;;;;;14.30;9.93;;;6.90;70.10;;;;;;5114425;27;20089;-81
2022/03/13 00:39:01;;;;;;;15.93;10.35;;;6.80;69.90;;;;;;5114326;27;20043;-81
2022/03/13 00:41:27;;;;;;;15.68;10.27;;;6.80;70.30;;;;;;5097167;27;20476;-81
2022/03/13 00:43:52;;;;;;;16.25;9.95;;;6.80;70.20;;;;;;5114295;27;20043;-81
2022/03/13 00:46:18;;;;;;;12.80;11.03;;;6.80;70.20;;;;;;5113279;27;20883;-81
2022/03/13 00:48:44;;;;;;;14.98;10.30;;;6.70;70.30;;;;;;5114500;27;20540;-81
2022/03/13 00:51:10;;;;;;;14.35;9.73;;;6.70;70.50;;;;;;5114292;27;20088;-81
2022/03/13 00:53:37;;;;;;;14.32;9.45;;;6.70;70.50;;;;;;5114404;27;20085;-81
2022/03/13 00:56:03;;;;;;;13.77;8.93;;;6.60;70.70;;;;;;5113691;27;20075;-81
2022/03/13 00:58:29;;;;;;;14.45;9.60;;;6.60;70.70;;;;;;5113786;27;20646;-81
2022/03/13 01:00:54;;;;;;;15.68;10.50;;;6.60;70.90;;;;;;5097087;27;20039;-81
2022/03/13 01:03:35;;;;;;;12.50;8.88;;;6.60;70.80;;;;;;5114404;27;20043;-81
2022/03/13 01:06:01;;;;;;;15.07;9.40;;;6.60;70.70;;;;;;5112470;27;20047;-81
2022/03/13 01:08:27;;;;;;;15.82;10.00;;;6.50;71.00;;;;;;5112921;27;20058;-81
2022/03/13 01:10:54;;;;;;;15.25;9.80;;;6.50;70.30;;;;;;5113080;27;20428;-81
2022/03/13 01:13:21;;;;;;;14.23;9.65;;;6.50;70.50;;;;;;5095701;27;20980;-81
2022/03/13 01:15:48;;;;;;;;;;;6.50;70.70;;;;;;5109959;28;20737;-81
2022/03/13 01:18:13;;;;;;;;;;;6.50;70.40;;;;;;5109535;28;19931;-81
2022/03/13 01:20:39;;;;;;;;;;;6.50;70.60;;;;;;5109884;28;19920;-81
2022/03/13 01:23:04;;;;;;;;;;;6.50;70.70;;;;;;5109516;28;20289;-81
2022/03/13 01:25:30;;;;;;;;;;;6.50;70.40;;;;;;5109749;28;19978;-82
2022/03/13 01:27:55;;;;;;;;;;;6.50;70.90;;;;;;5109376;28;19919;-81
2022/03/13 01:30:21;;;;;;;;;;;6.50;70.70;;;;;;5110264;28;19923;-81
2022/03/13 01:32:53;;;;;;;;;;;6.40;70.60;;;;;;5110633;28;19919;-81
2022/03/13 01:35:20;;;;;;;;;;;6.50;70.60;;;;;;5110702;28;19928;-81
2022/03/13 01:37:45;;;;;;;;;;;6.40;70.90;;;;;;5110078;28;19967;-81
2022/03/13 01:40:12;;;;;;;;;;;6.40;70.90;;;;;;5109909;28;20590;-81
2022/03/13 01:42:40;;;;;;;;;;;6.40;71.10;;;;;;5110623;28;19920;-81
2022/03/13 01:45:07;;;;;;;;;;;6.40;71.10;;;;;;5110201;28;19964;-81
2022/03/13 01:47:33;;;;;;;;;;;6.30;70.90;;;;;;5111701;27;20922;-81
2022/03/13 01:49:58;;;;;;;;;;;6.30;71.20;;;;;;5116704;27;19972;-81
2022/03/13 01:52:25;;;;;;;;;;;6.30;71.10;;;;;;5116515;27;20006;-82
2022/03/13 01:54:51;;;;;;;;;;;6.30;71.10;;;;;;5130766;27;19920;-82
2022/03/13 01:57:17;;;;;;;;;;;6.30;71.00;;;;;;5130382;27;19930;-81
2022/03/13 01:59:43;;;;;;;;;;;6.30;71.20;;;;;;5130549;27;19925;-81
2022/03/13 02:02:09;;;;;;;;;;;6.30;71.20;;;;;;5130584;27;19919;-81
2022/03/13 02:04:34;;;;;;;;;;;6.30;71.20;;;;;;5113199;27;20001;-81
2022/03/13 02:06:59;;;;;;;;;;;6.30;71.50;;;;;;5113103;27;20113;-81
2022/03/13 02:09:26;;;;;;;;;;;6.20;71.40;;;;;;5130666;27;19926;-81
2022/03/13 02:11:52;;;;;;;;;;;6.20;71.40;;;;;;5130229;27;19924;-81
2022/03/13 02:14:21;;;;;;;;;;;6.20;71.50;;;;;;5130137;27;20313;-82
2022/03/13 02:16:47;;;;;;;;;;;6.20;71.50;;;;;;5100338;28;19919;-81
2022/03/13 02:19:14;;;;;;;;;;;6.20;71.70;;;;;;5109691;28;19920;-81
2022/03/13 02:21:42;;;;;;;;;;;6.20;72.00;;;;;;5109705;28;20324;-81
2022/03/13 02:24:12;;;;;;;13.15;9.57;;;6.20;72.30;;;;;;5109480;28;19970;-82
2022/03/13 02:26:38;;;;;;;15.23;9.50;;;6.20;72.10;;;;;;5109449;28;20074;-81
2022/03/13 02:29:04;;;;;;;14.00;9.52;;;6.20;72.10;;;;;;5108604;28;20044;-81
2022/03/13 02:31:32;;;;;;;14.20;10.00;;;6.20;72.10;;;;;;5108908;28;20558;-81
2022/03/13 02:33:58;;;;;;;14.90;9.75;;;6.20;72.50;;;;;;5109389;28;20134;-82
2022/03/13 02:36:27;;;;;;;15.05;10.73;;;6.20;72.50;;;;;;5108394;28;20713;-81
2022/03/13 02:38:53;;;;;;;16.17;10.55;;;6.10;72.70;;;;;;5091674;28;20046;-81
2022/03/13 02:41:19;;;;;;;15.20;10.73;;;6.10;72.80;;;;;;5108648;28;20044;-82
2022/03/13 02:43:45;;;;;;;14.05;10.63;;;6.10;73.00;;;;;;5108910;28;20395;-81
2022/03/13 02:46:22;;;;;;;14.40;10.57;;;6.10;73.30;;;;;;5091417;28;20379;-82
2022/03/13 02:48:49;;;;;;;16.45;10.77;;;6.00;73.10;;;;;;5091349;28;20047;-82
2022/03/13 02:51:15;;;;;;;17.48;10.70;;;6.00;73.00;;;;;;5108881;28;20510;-82
2022/03/13 02:53:41;;;;;;;14.80;10.15;;;6.00;73.30;;;;;;5108734;28;20153;-82
2022/03/13 02:56:07;;;;;;;14.85;10.63;;;6.00;74.00;;;;;;5104227;28;20035;-82
2022/03/13 02:58:33;;;;;;;15.15;10.98;;;6.00;73.40;;;;;;5087808;28;20387;-81
2022/03/13 03:00:59;;;;;;;15.55;10.65;;;6.10;73.90;;;;;;5088254;28;20046;-82
2022/03/13 03:03:25;;;;;;;15.00;10.65;;;6.00;73.70;;;;;;5089616;28;20040;-81
2022/03/13 03:05:51;;;;;;;14.60;10.75;;;6.00;74.40;;;;;;5071283;28;20042;-81
2022/03/13 03:08:17;;;;;;;15.93;10.98;;;6.00;74.00;;;;;;5087696;28;20550;-81
2022/03/13 03:10:44;;;;;;;14.60;10.75;;;6.00;74.00;;;;;;5088520;28;20376;-81
2022/03/13 03:13:11;;;;;;;17.05;10.95;;;6.00;74.00;;;;;;5088044;28;20495;-81
2022/03/13 03:15:37;;;;;;;13.77;10.32;;;6.00;74.10;;;;;;5092771;28;20044;-81
2022/03/13 03:18:04;;;;;;;17.17;10.73;;;6.00;74.20;;;;;;5129902;27;20066;-81
2022/03/13 03:20:30;;;;;;;13.98;10.38;;;5.90;74.20;;;;;;5111391;28;20043;-82
2022/03/13 03:22:56;;;;;;;15.15;10.80;;;5.90;74.00;;;;;;5111704;28;20152;-81
2022/03/13 03:25:27;;;;;;;15.38;11.25;;;5.90;74.40;;;;;;5111842;28;20528;-81
2022/03/13 03:27:54;;;;;;;17.50;11.85;;;5.90;74.20;;;;;;5111578;28;20086;-81
2022/03/13 03:30:25;;;;;;;17.17;10.90;;;5.90;74.70;;;;;;5111407;28;20070;-82
2022/03/13 03:32:52;;;;;;;17.55;11.10;;;5.90;74.60;;;;;;5111698;28;20134;-81
2022/03/13 03:35:20;;;;;;;17.73;11.70;;;5.90;74.60;;;;;;5111384;28;20039;-81
2022/03/13 03:37:46;;;;;;;15.73;11.18;;;5.80;74.80;;;;;;5111399;28;20126;-81
2022/03/13 03:40:12;;;;;;;15.73;10.63;;;5.80;74.60;;;;;;5111731;28;20039;-81
2022/03/13 03:42:39;;;;;;;15.15;11.48;;;5.80;75.00;;;;;;5111293;28;20508;-82
2022/03/13 03:45:06;;;;;;;14.95;11.02;;;5.80;75.00;;;;;;5094110;28;20078;-81
2022/03/13 03:47:31;;;;;;;15.07;10.88;;;5.80;75.00;;;;;;5111257;28;20083;-81
2022/03/13 03:49:57;;;;;;;17.00;11.93;;;5.70;75.10;;;;;;5111656;28;20126;-81
2022/03/13 03:52:23;;;;;;;17.92;11.68;;;5.70;74.80;;;;;;5111417;28;20150;-81
2022/03/13 03:54:48;;;;;;;16.77;11.05;;;5.80;75.70;;;;;;5110638;28;20134;-82
2022/03/13 03:57:14;;;;;;;20.90;12.43;;;5.70;75.30;;;;;;5125103;27;20043;-81
2022/03/13 03:59:39;;;;;;;15.98;11.20;;;5.70;75.20;;;;;;5117521;27;20047;-81
2022/03/13 04:02:05;;;;;;;16.98;11.05;;;5.70;75.10;;;;;;5135883;27;20400;-81
2022/03/13 04:04:31;;;;;;;15.10;10.80;;;5.70;75.20;;;;;;5135555;27;20095;-81
2022/03/13 04:06:56;;;;;;;15.32;10.75;;;5.70;75.30;;;;;;5135819;27;20039;-81
2022/03/13 04:09:22;;;;;;;17.15;10.95;;;5.70;75.20;;;;;;5135503;27;20043;-81
2022/03/13 04:11:47;;;;;;;15.45;11.35;;;5.70;75.10;;;;;;5135062;27;20054;-81
2022/03/13 04:14:14;;;;;;;16.75;11.18;;;5.70;75.30;;;;;;5135782;27;20045;-81
2022/03/13 04:16:41;;;;;;;18.02;11.80;;;5.70;75.40;;;;;;5135086;27;20057;-82
2022/03/13 04:19:09;;;;;;;16.98;10.77;;;5.70;75.80;;;;;;5134987;27;20050;-82
2022/03/13 04:21:39;;;;;;;15.30;11.30;;;5.70;75.30;;;;;;5135537;27;20050;-82
2022/03/13 04:24:06;;;;;;;15.77;10.90;;;5.70;75.30;;;;;;5118282;27;20039;-81
2022/03/13 04:26:32;;;;;;;14.75;10.07;;;5.60;75.20;;;;;;5117758;27;20516;-82
2022/03/13 04:28:58;;;;;;;16.90;11.18;;;5.60;75.20;;;;;;5135104;27;20042;-82
2022/03/13 04:31:24;;;;;;;17.85;10.32;;;5.60;75.40;;;;;;5135242;27;20041;-81
2022/03/13 04:33:50;;;;;;;16.23;11.23;;;5.60;75.30;;;;;;5118041;27;20055;-82
2022/03/13 04:36:20;;;;;;;17.05;10.98;;;5.60;75.30;;;;;;5135386;27;20420;-81
2022/03/13 04:38:45;;;;;;;;;;;5.50;75.60;;;;;;5135318;27;20491;-81
2022/03/13 04:41:11;;;;;;;;;;;5.50;75.70;;;;;;5135275;27;19919;-81
2022/03/13 04:43:37;;;;;;;;;;;5.50;75.30;;;;;;5135605;27;19923;-81
2022/03/13 04:46:02;;;;;;;;;;;5.40;75.30;;;;;;5135265;27;20053;-81
2022/03/13 04:48:28;;;;;;;;;;;5.40;75.50;;;;;;5117990;27;20308;-81
2022/03/13 04:50:53;;;;;;;13.18;9.30;;;5.40;75.70;;;;;;5153075;27;20386;-81
2022/03/13 04:53:19;;;;;;;13.68;9.95;;;5.40;75.60;;;;;;5135085;27;20046;-81
2022/03/13 04:55:45;;;;;;;16.70;10.32;;;5.30;75.50;;;;;;5134465;27;20034;-81
2022/03/13 04:58:10;;;;;;;14.80;11.50;;;5.30;75.40;;;;;;5133509;27;20396;-81
2022/03/13 05:00:38;;;;;;;13.65;12.15;;;5.30;75.50;;;;;;5116338;27;20784;-81
2022/03/13 05:03:05;;;;;;;15.90;12.57;;;5.20;75.30;;;;;;5133276;27;20491;-81
2022/03/13 05:05:34;;;;;;;14.27;10.48;;;5.20;75.50;;;;;;5134117;27;20063;-81
2022/03/13 05:08:00;;;;;;;13.50;9.57;;;5.20;75.40;;;;;;5134687;27;20047;-81
2022/03/13 05:10:32;;;;;;;16.13;10.25;;;5.10;75.40;;;;;;5152658;27;20045;-81
2022/03/13 05:12:58;;;;;;;;;;;5.10;75.30;;;;;;5134804;27;20553;-81
2022/03/13 05:15:24;;;;;;;;;;;5.10;75.50;;;;;;5134149;27;19919;-82
2022/03/13 05:17:50;;;;;;;;;;;5.10;75.40;;;;;;5134790;27;20015;-81
2022/03/13 05:20:16;;;;;;;;;;;5.00;75.10;;;;;;5135009;27;20038;-82
2022/03/13 05:22:42;;;;;;;;;;;5.10;75.30;;;;;;5135014;27;19985;-81
2022/03/13 05:25:08;;;;;;;;;;;5.00;75.30;;;;;;5134730;27;20386;-82
2022/03/13 05:27:33;;;;;;;;;;;5.00;75.00;;;;;;5134195;27;19923;-81
2022/03/13 05:29:59;;;;;;;16.80;9.55;;;5.00;75.10;;;;;;5133949;27;20274;-81
2022/03/13 05:32:24;;;;;;;15.93;10.07;;;4.90;74.70;;;;;;5133966;27;20107;-81
2022/03/13 05:34:50;;;;;;;;;;;5.00;74.50;;;;;;5134419;27;20042;-81
2022/03/13 05:37:16;;;;;;;;;;;5.00;74.50;;;;;;5134170;27;19926;-82
2022/03/13 05:39:41;;;;;;;;;;;4.90;74.70;;;;;;5116848;27;19919;-81
2022/03/13 05:42:07;;;;;;;13.40;9.23;;;4.90;74.50;;;;;;5116860;27;19918;-81
2022/03/13 05:44:35;;;;;;;14.20;9.05;;;4.90;74.60;;;;;;5116904;27;20034;-82
2022/03/13 05:47:02;;;;;;;13.00;9.45;;;4.90;74.50;;;;;;5151515;27;20058;-82
2022/03/13 05:49:27;;;;;;;13.35;9.07;;;4.90;74.40;;;;;;5134013;27;20042;-82
2022/03/13 05:51:54;;;;;;;13.10;8.93;;;4.90;74.70;;;;;;5116487;27;20038;-82
2022/03/13 05:54:20;;;;;;;15.80;9.52;;;4.90;74.00;;;;;;5116486;27;20423;-82
2022/03/13 05:56:46;;;;;;;12.82;8.93;;;4.90;73.80;;;;;;5132717;27;20035;-82
2022/03/13 05:59:12;;;;;;;11.98;8.82;;;4.90;73.00;;;;;;5133722;27;20047;-82
2022/03/13 06:01:38;;;;;;;12.05;8.73;;;5.00;73.10;;;;;;5116770;27;20043;-82
2022/03/13 06:04:05;;;;;;;13.57;8.52;;;5.00;72.80;;;;;;5133496;27;20050;-82
2022/03/13 06:06:30;;;;;;;13.45;8.13;;;5.10;72.60;;;;;;5133314;27;20039;-82
2022/03/13 06:08:56;;;;;;;13.82;8.85;;;5.10;72.30;;;;;;5133009;27;20039;-82
2022/03/13 06:11:21;;;;;;;13.65;8.52;;;5.10;72.30;;;;;;5133564;27;20043;-82
2022/03/13 06:13:47;;;;;;;15.73;9.13;;;5.10;72.50;;;;;;5133157;27;20078;-82
2022/03/13 06:16:13;;;;;;;14.43;8.32;;;5.10;72.10;;;;;;5132863;27;20046;-81
2022/03/13 06:18:39;;;;;;;12.25;8.85;;;5.10;72.40;;;;;;5133434;27;20485;-82
2022/03/13 06:21:05;;;;;;;11.50;8.30;;;5.10;72.00;;;;;;5150362;27;20108;-82
2022/03/13 06:23:32;;;;;;;14.00;7.95;;;5.20;71.70;;;;;;5132953;27;20442;-82
2022/03/13 06:25:58;;;;;;;13.10;8.23;;;5.20;70.70;;;;;;5133392;27;20129;-81
2022/03/13 06:28:24;;;;;;;15.90;9.13;;;5.20;70.80;;;;;;5133162;27;20053;-82
2022/03/13 06:30:50;;;;;;;13.55;8.15;;;5.20;70.90;;;;;;5132631;27;20038;-82
2022/03/13 06:33:15;;;;;;;13.52;8.30;;;5.20;70.90;;;;;;5132822;27;20039;-82
2022/03/13 06:35:41;;;;;;;12.23;8.55;;;5.20;70.40;;;;;;5132804;27;20049;-82
2022/03/13 06:38:07;;;;;;;13.07;8.63;;;5.30;70.10;;;;;;5115609;27;20053;-82
2022/03/13 06:40:33;;;;;;;13.20;8.43;;;5.30;69.90;;;;;;5115429;27;20039;-82
2022/03/13 06:42:58;;;;;;;11.90;8.15;;;5.30;70.20;;;;;;5132712;27;20035;-82
2022/03/13 06:45:24;;;;;;;12.15;8.07;;;5.40;69.90;;;;;;5132413;27;20501;-82
2022/03/13 06:47:51;;;;;;;13.50;8.73;;;5.40;68.90;;;;;;5132307;27;20076;-82
2022/03/13 06:50:19;;;;;;;10.73;7.43;;;5.40;69.10;;;;;;5132887;27;20042;-82
2022/03/13 06:52:46;;;;;;;13.20;8.18;;;5.50;68.70;;;;;;5132303;27;20043;-81
2022/03/13 06:55:13;;;;;;;12.70;7.93;;;5.50;68.30;;;;;;5132545;27;20117;-82
2022/03/13 06:57:39;;;;;;;12.82;7.53;;;5.50;68.70;;;;;;5097718;27;20043;-82
2022/03/13 07:00:06;;;;;;;12.48;8.52;;;5.50;67.90;;;;;;5111581;27;20144;-82
2022/03/13 07:02:32;;;;;;;11.70;7.97;;;5.50;68.10;;;;;;5111402;27;20112;-82
2022/03/13 07:04:57;;;;;;;12.27;8.02;;;5.50;68.50;;;;;;5111671;27;20035;-82
2022/03/13 07:07:23;;;;;;;12.68;8.35;;;5.50;68.30;;;;;;5112037;27;20050;-82
2022/03/13 07:09:49;;;;;;;11.98;8.55;;;5.60;68.70;;;;;;5111651;27;20054;-82
2022/03/13 07:12:16;;;;;;;10.57;7.80;;;5.60;69.00;;;;;;5130397;27;20130;-82
2022/03/13 07:14:45;;;;;;;12.43;8.68;;;5.50;68.20;;;;;;5111114;28;20050;-82
2022/03/13 07:17:11;;;;;;;11.18;7.72;;;5.60;68.50;;;;;;5093694;27;20058;-82
2022/03/13 07:19:37;;;;;;;12.25;8.32;;;5.60;68.40;;;;;;5111645;28;20054;-82
2022/03/13 07:22:03;;;;;;;11.32;7.93;;;5.60;68.40;;;;;;5094003;28;20047;-82
2022/03/13 07:24:29;;;;;;;12.30;9.48;;;5.60;68.10;;;;;;5110213;28;20414;-81
2022/03/13 07:26:54;;;;;;;14.25;9.77;;;5.60;68.10;;;;;;5110029;28;20399;-82
2022/03/13 07:29:20;;;;;;;13.07;9.53;;;5.70;68.50;;;;;;5110482;28;20899;-82
2022/03/13 07:31:46;;;;;;;12.82;9.55;;;5.70;68.50;;;;;;5110154;28;20398;-82
2022/03/13 07:34:12;;;;;;;13.23;9.07;;;5.80;68.80;;;;;;5115576;27;20122;-82
2022/03/13 07:36:39;;;;;;;10.95;7.78;;;5.80;69.00;;;;;;5115125;27;20043;-81
2022/03/13 07:39:05;;;;;;;12.85;7.82;;;5.90;69.00;;;;;;5121389;27;20488;-83
2022/03/13 07:41:31;;;;;;;13.32;8.20;;;5.90;69.10;;;;;;5116020;27;20042;-82
2022/03/13 07:43:56;;;;;;;13.75;8.13;;;6.00;68.70;;;;;;5117060;27;20038;-82
2022/03/13 07:46:22;;;;;;;12.10;8.23;;;6.00;68.90;;;;;;5121398;27;20042;-83
2022/03/13 07:48:48;;;;;;;11.77;8.32;;;6.10;68.30;;;;;;5136226;27;20042;-83
2022/03/13 07:51:14;;;;;;;13.63;8.55;;;6.20;67.50;;;;;;5116225;27;20042;-82
2022/03/13 07:53:40;;;;;;;12.13;8.88;;;6.10;67.80;;;;;;5097016;27;20047;-83
2022/03/13 07:56:05;;;;;;;12.88;8.15;;;6.20;67.90;;;;;;5117965;27;20035;-83
2022/03/13 07:58:32;;;;;;;12.07;8.13;;;6.20;67.10;;;;;;5113865;27;20435;-83
2022/03/13 08:00:58;;;;;;;14.32;8.43;;;6.30;67.60;;;;;;5126670;27;20418;-81
2022/03/13 08:03:35;;;;;;;10.95;7.78;;;6.40;67.50;;;;;;5112151;27;20049;-81
2022/03/13 08:06:00;;;;;;;11.70;8.23;;;6.40;67.80;;;;;;5117178;27;20126;-82
2022/03/13 08:08:26;;;;;;;14.68;7.90;;;6.50;67.50;;;;;;5134402;27;20808;-82
2022/03/13 08:10:52;;;;;;;11.63;8.15;;;6.50;68.10;;;;;;5134345;27;20042;-82
2022/03/13 08:13:18;;;;;;;11.88;8.38;;;6.60;68.50;;;;;;5134037;27;20042;-82
2022/03/13 08:15:43;;;;;;;14.20;9.15;;;6.60;67.70;;;;;;5129594;27;20054;-82
2022/03/13 08:18:10;;;;;;;9.82;7.50;;;6.70;67.70;;;;;;5104662;27;20043;-82
2022/03/13 08:20:37;;;;;;;10.68;8.20;;;6.80;67.40;;;;;;5121694;27;20667;-82
2022/03/13 08:23:02;;;;;;;14.45;8.68;;;6.80;67.00;;;;;;5112855;27;20752;-83
2022/03/13 08:25:28;;;;;;;12.35;8.57;;;6.90;66.50;;;;;;5117272;27;20038;-82
2022/03/13 08:27:54;;;;;;;11.48;7.95;;;6.90;66.80;;;;;;5095900;27;20047;-81
2022/03/13 08:30:20;;;;;;;13.07;8.07;;;7.00;66.80;;;;;;5112168;27;20054;-81
2022/03/13 08:32:46;;;;;;;13.60;8.40;;;7.00;67.20;;;;;;5108875;27;20042;-83
2022/03/13 08:35:12;;;;;;;13.52;9.02;;;7.10;67.30;;;;;;5112492;27;20050;-83
2022/03/13 08:37:38;;;;;;;12.35;8.95;;;7.20;67.20;;;;;;5114573;27;20050;-82
2022/03/13 08:40:05;;;;;;;14.07;8.40;;;7.30;67.40;;;;;;5133873;27;20043;-82
2022/03/13 08:42:32;;;;;;;11.40;8.63;;;7.40;67.80;;;;;;5117942;27;20042;-82
2022/03/13 08:44:59;;;;;;;13.63;9.25;;;7.40;66.20;;;;;;5111019;27;20093;-82
2022/03/13 08:47:26;;;;;;;12.77;8.15;;;7.50;65.80;;;;;;5099804;27;20121;-82
2022/03/13 08:49:52;;;;;;;13.02;8.75;;;7.60;65.90;;;;;;5116383;27;20051;-83
2022/03/13 08:52:18;;;;;;;11.15;8.45;;;7.70;66.30;;;;;;5110148;27;20055;-83
2022/03/13 08:54:44;;;;;;;12.65;8.43;;;7.80;66.00;;;;;;5112618;27;20039;-83
2022/03/13 08:57:10;;;;;;;13.40;8.73;;;8.00;65.90;;;;;;5117404;27;20039;-82
2022/03/13 08:59:36;;;;;;;16.50;9.27;;;8.10;66.30;;;;;;5111945;27;20031;-82
2022/03/13 09:02:05;;;;;;;11.02;8.05;;;8.20;65.70;;;;;;5130322;27;20064;-82
2022/03/13 09:04:32;;;;;;;9.70;7.65;;;8.40;65.80;;;;;;5130298;27;20039;-83
2022/03/13 09:06:58;;;;;;;14.02;8.98;;;8.50;65.10;;;;;;5128642;27;20085;-82
2022/03/13 09:09:24;;;;;;;12.50;9.63;;;8.60;65.50;;;;;;5118954;27;20423;-82
2022/03/13 09:11:51;;;;;;;12.50;9.30;;;8.80;65.30;;;;;;5098674;27;20047;-82
2022/03/13 09:14:17;;;;;;;13.10;9.13;;;8.90;65.70;;;;;;5112784;27;20649;-82
2022/03/13 09:16:44;;;;;;;11.13;8.30;;;9.00;64.30;;;;;;5110206;27;20079;-80
2022/03/13 09:19:10;;;;;;;11.65;9.13;;;9.20;64.60;;;;;;5137026;27;20054;-81
2022/03/13 09:21:38;;;;;;;;;;;9.30;63.80;;;;;;5157785;27;20569;-80
2022/03/13 09:24:08;;;;;;;;;;;9.50;64.50;;;;;;5139068;27;19923;-80
2022/03/13 09:26:39;;;;;;;;;;;10.00;64.30;;;;;;5141411;27;19962;-81
2022/03/13 09:29:05;;;;;;;;;;;10.70;61.80;;;;;;5140325;27;19926;-80
2022/03/13 09:31:31;;;;;;;;;;;11.40;60.70;;;;;;5127409;27;19923;-80
2022/03/13 09:33:57;;;;;;;;;;;12.30;59.30;;;;;;5138519;27;20703;-80
2022/03/13 09:36:22;;;;;;;;;;;13.10;57.90;;;;;;5123146;27;19919;-81
2022/03/13 09:38:48;;;;;;;;;;;13.80;55.90;;;;;;5121604;27;19919;-81
2022/03/13 09:41:13;;;;;;;;;;;14.10;52.80;;;;;;5121921;27;19927;-81
2022/03/13 09:43:39;;;;;;;;;;;14.20;54.00;;;;;;5111119;27;19969;-81
2022/03/13 09:46:05;;;;;;;;;;;14.00;52.40;;;;;;5123900;27;19986;-81
2022/03/13 09:48:34;;;;;;;;;;;13.80;52.10;;;;;;5139798;27;19923;-81
2022/03/13 09:51:01;;;;;;;;;;;14.00;53.30;;;;;;5138052;27;19935;-81
2022/03/13 09:53:27;;;;;;;;;;;14.10;53.60;;;;;;5121757;27;19927;-81
2022/03/13 09:55:52;;;;;;;;;;;14.10;53.90;;;;;;5111729;27;20349;-81
2022/03/13 09:58:18;;;;;;;;;;;14.40;52.60;;;;;;5141380;27;19923;-81
2022/03/13 10:00:43;;;;;;;;;;;14.80;52.30;;;;;;5145032;27;19919;-81
2022/03/13 10:03:11;;;;;;;;;;;15.30;51.10;;;;;;5147516;27;19919;-81
2022/03/13 10:05:44;;;;;;;;;;;15.50;50.40;;;;;;5143164;27;19918;-81
2022/03/13 10:08:10;;;;;;;;;;;15.70;51.20;;;;;;5143759;27;19922;-80
2022/03/13 10:10:45;;;;;;;;;;;16.10;51.40;;;;;;5139424;27;20377;-81
2022/03/13 10:13:15;;;;;;;;;;;16.50;49.50;;;;;;5120421;27;19923;-81
2022/03/13 10:15:41;;;;;;;;;;;16.70;49.80;;;;;;5124661;27;20288;-81
2022/03/13 10:18:11;;;;;;;;;;;16.90;47.60;;;;;;5125765;27;19919;-81
2022/03/13 10:20:39;;;;;;;;;;;17.00;48.00;;;;;;5138565;27;20304;-80
2022/03/13 10:23:09;;;;;;;;;;;17.00;48.00;;;;;;5140394;27;19919;-81
2022/03/13 10:25:36;;;;;;;;;;;16.90;49.00;;;;;;5122347;27;19919;-81
2022/03/13 10:28:15;;;;;;;;;;;17.10;47.10;;;;;;5139654;27;20026;-82
2022/03/13 10:30:41;;;;;;;;;;;17.20;48.70;;;;;;5140286;27;19923;-81
2022/03/13 10:33:08;;;;;;;;;;;17.20;50.50;;;;;;5123207;27;20389;-81
2022/03/13 10:35:34;;;;;;;;;;;17.10;51.00;;;;;;5119319;27;19942;-82
2022/03/13 10:38:00;;;;;;;;;;;17.00;51.10;;;;;;5118238;27;20298;-81
2022/03/13 10:40:32;;;;;;;;;;;17.10;50.60;;;;;;5119240;27;19930;-81
2022/03/13 10:43:02;;;;;;;;;;;17.20;51.60;;;;;;5120378;27;19919;-81
2022/03/13 10:45:39;;;;;;;;;;;17.40;51.40;;;;;;5120596;27;19919;-81
2022/03/13 10:48:15;;;;;;;;;;;17.80;51.40;;;;;;5104033;27;19927;-81
2022/03/13 10:50:41;;;;;;;;;;;18.00;51.30;;;;;;5120957;27;19919;-80
2022/03/13 10:53:11;;;;;;;;;;;17.90;49.50;;;;;;5103223;27;19926;-81
2022/03/13 10:55:37;;;;;;;;;;;17.60;49.50;;;;;;5102961;27;20418;-81
2022/03/13 10:58:03;;;;;;;;;;;17.10;49.40;;;;;;5118929;27;19920;-81
2022/03/13 11:00:28;;;;;;;;;;;16.50;50.50;;;;;;5102560;27;19924;-81
2022/03/13 11:03:07;;;;;;;;;;;15.80;50.70;;;;;;5120039;27;19926;-81
2022/03/13 11:05:33;;;;;;;;;;;15.40;51.30;;;;;;5107809;27;19927;-79
2022/03/13 11:07:58;;;;;;;;;;;15.00;53.00;;;;;;5122963;27;19923;-81
2022/03/13 11:10:24;;;;;;;13.00;10.15;;;14.90;52.70;;;;;;5120697;27;19919;-80
2022/03/13 11:12:51;;;;;;;13.18;10.10;;;14.80;52.70;;;;;;5122973;28;20515;-81
2022/03/13 11:15:17;;;;;;;12.98;10.65;;;14.70;52.60;;;;;;5117619;27;20050;-81
2022/03/13 11:17:43;;;;;;;13.00;10.25;;;14.90;53.40;;;;;;5109267;28;20047;-81
2022/03/13 11:20:11;;;;;;;;;;;15.10;53.40;;;;;;5117490;28;20388;-81
2022/03/13 11:22:37;;;;;;;;;;;15.40;53.10;;;;;;5114420;28;20367;-81
2022/03/13 11:25:06;;;;;;;;;;;15.90;53.80;;;;;;5112479;28;20461;-81
2022/03/13 11:27:35;;;;;;;15.77;10.45;;;16.30;51.90;;;;;;5110835;28;20389;-81
2022/03/13 11:30:01;;;;;;;13.80;8.77;;;16.50;52.10;;;;;;5111116;28;20191;-81
2022/03/13 11:32:34;;;;;;;13.35;9.68;;;16.70;51.00;;;;;;5110667;28;20079;-81
2022/03/13 11:35:13;;;;;;;12.37;9.47;;;16.80;51.60;;;;;;5111863;28;20526;-81
2022/03/13 11:37:40;;;;;;;11.73;9.30;;;16.80;49.90;;;;;;5112225;28;20047;-81
2022/03/13 11:40:07;;;;;;;12.30;10.13;;;16.50;49.40;;;;;;5112652;28;20394;-81
2022/03/13 11:42:48;;;;;;;;;;;16.30;51.40;;;;;;5112396;28;20039;-81
2022/03/13 11:45:35;;;;;;;;;;;16.00;50.60;;;;;;5096114;28;20355;-81
2022/03/13 11:48:09;;;;;;;;;;;15.80;49.60;;;;;;5096390;28;19919;-81
2022/03/13 11:50:54;;;;;;;;;;;15.70;50.30;;;;;;5115447;28;19950;-80
2022/03/13 11:53:21;;;;;;;;;;;15.80;50.50;;;;;;5095559;28;20373;-81
2022/03/13 11:55:59;;;;;;;;;;;16.00;50.00;;;;;;5131072;27;19970;-81
2022/03/13 11:58:37;;;;;;;;;;;16.00;50.00;;;;;;5116715;27;19919;-80
2022/03/13 12:01:07;;;;;;;;;;;16.00;49.80;;;;;;5116375;27;20009;-80
2022/03/13 12:03:32;;;;;;;;;;;16.10;49.60;;;;;;5132773;27;19919;-81
2022/03/13 12:05:59;;;;;;;;;;;16.20;49.40;;;;;;5132955;27;19922;-81
2022/03/13 12:08:45;;;;;;;;;;;16.20;48.40;;;;;;5115531;27;19942;-81
2022/03/13 12:11:35;;;;;;;;;;;16.00;48.40;;;;;;5131810;27;19919;-81
2022/03/13 12:14:00;;;;;;;10.88;9.38;;;15.90;48.50;;;;;;5115462;27;19929;-81
2022/03/13 12:16:26;;;;;;;;;;;16.30;48.20;;;;;;5115087;27;20447;-81
2022/03/13 12:19:00;;;;;;;;;;;17.10;48.20;;;;;;5132221;27;19923;-81
2022/03/13 12:21:26;;;;;;;11.75;9.88;;;17.40;45.90;;;;;;5135366;27;19920;-80
2022/03/13 12:23:57;;;;;;;14.57;9.63;;;17.30;46.30;;;;;;5118460;27;20091;-81
2022/03/13 12:26:28;;;;;;;13.35;9.68;;;17.40;45.20;;;;;;5118865;27;20045;-81
2022/03/13 12:28:55;;;;;;;;;;;17.70;46.60;;;;;;5136521;27;20031;-81
2022/03/13 12:31:21;;;;;;;;;;;18.20;46.00;;;;;;5136976;27;19987;-81
2022/03/13 12:33:48;;;;;;;;;;;18.80;46.40;;;;;;5136844;27;19975;-81
2022/03/13 12:36:14;;;;;;;;;;;19.30;44.00;;;;;;5136457;27;19919;-81
2022/03/13 12:38:43;;;;;;;;;;;19.40;43.80;;;;;;5137071;27;19929;-81
2022/03/13 12:41:09;;;;;;;;;;;19.60;42.10;;;;;;5135876;27;20408;-81
2022/03/13 12:43:49;;;;;;;;;;;19.70;41.80;;;;;;5135991;27;19926;-80
2022/03/13 12:46:17;;;;;;;;;;;19.80;41.80;;;;;;5135269;27;19919;-80
2022/03/13 12:48:53;;;;;;;;;;;20.10;41.30;;;;;;5135945;27;20395;-81
2022/03/13 12:51:39;;;;;;;;;;;20.30;42.30;;;;;;5135500;27;20014;-81
2022/03/13 12:54:07;;;;;;;;;;;20.60;41.30;;;;;;5135531;27;20365;-81
2022/03/13 12:56:35;;;;;;;;;;;20.90;40.00;;;;;;5117656;27;19919;-81
2022/03/13 12:59:01;;;;;;;10.73;8.93;;;21.10;40.00;;;;;;5134774;27;19922;-81
2022/03/13 13:01:27;;;;;;;11.75;9.27;;;21.30;39.90;;;;;;5134923;27;20396;-81
2022/03/13 13:03:53;;;;;;;;;;;21.40;38.60;;;;;;5118159;27;20523;-81
2022/03/13 13:06:35;;;;;;;11.55;9.05;;;21.20;37.90;;;;;;5117334;27;19984;-80
2022/03/13 13:09:03;;;;;;;11.48;9.02;;;21.10;37.70;;;;;;5117367;27;20039;-81
2022/03/13 13:11:33;;;;;;;13.15;9.00;;;21.30;37.80;;;;;;5117792;27;20039;-81
2022/03/13 13:14:02;;;;;;;12.07;8.80;;;21.50;38.40;;;;;;5134706;27;20672;-81
2022/03/13 13:16:29;;;;;;;10.63;9.23;;;21.60;38.70;;;;;;5152821;27;20139;-81